createdAt,value
2022-12-18T00:00:08.385Z,-7.40
2022-12-18T00:02:41.798Z,-7.40
2022-12-18T00:05:10.200Z,-7.30
2022-12-18T00:07:38.653Z,-7.40
2022-12-18T00:10:07.892Z,-7.40
2022-12-18T00:12:35.848Z,-7.40
2022-12-18T00:15:05.827Z,-7.30
2022-12-18T00:17:33.830Z,-7.40
2022-12-18T00:20:01.823Z,-7.40
2022-12-18T00:22:29.765Z,-7.40
2022-12-18T00:24:57.718Z,-7.40
2022-12-18T00:27:25.699Z,-7.40
2022-12-18T00:29:53.928Z,-7.40
2022-12-18T00:32:23.208Z,-7.40
2022-12-18T00:34:51.178Z,-7.40
2022-12-18T00:37:20.456Z,-7.30
2022-12-18T00:39:52.455Z,-7.40
2022-12-18T00:42:39.014Z,-7.40
2022-12-18T00:45:12.542Z,-7.40
2022-12-18T00:47:42.783Z,-7.40
2022-12-18T00:50:11.672Z,-7.40
2022-12-18T00:52:42.459Z,-7.50
2022-12-18T00:55:11.084Z,-7.50
2022-12-18T00:57:39.141Z,-7.50
2022-12-18T01:00:12.235Z,-7.60
2022-12-18T01:02:40.705Z,-7.60
2022-12-18T01:05:11.851Z,-7.60
2022-12-18T01:07:40.121Z,-7.60
2022-12-18T01:10:09.460Z,-7.60
2022-12-18T01:12:37.441Z,-7.60
2022-12-18T01:15:07.056Z,-7.60
2022-12-18T01:17:35.263Z,-7.60
2022-12-18T01:20:03.407Z,-7.60
2022-12-18T01:22:32.762Z,-7.60
2022-12-18T01:25:01.952Z,-7.70
2022-12-18T01:27:30.008Z,-7.70
2022-12-18T01:29:58.061Z,-7.70
2022-12-18T01:32:27.173Z,-7.70
2022-12-18T01:34:55.130Z,-7.70
2022-12-18T01:37:23.086Z,-7.70
2022-12-18T01:39:53.533Z,-7.80
2022-12-18T01:42:21.844Z,-7.80
2022-12-18T01:45:02.942Z,-7.90
2022-12-18T01:47:44.612Z,-7.90
2022-12-18T01:50:16.684Z,-7.90
2022-12-18T01:52:46.873Z,-7.90
2022-12-18T01:55:19.740Z,-7.90
2022-12-18T01:57:49.140Z,-7.90
2022-12-18T02:00:21.923Z,-8.00
2022-12-18T02:02:50.332Z,-8.00
2022-12-18T02:05:29.334Z,-8.00
2022-12-18T02:08:08.316Z,-8.10
2022-12-18T02:10:46.400Z,-8.10
2022-12-18T02:13:21.649Z,-8.10
2022-12-18T02:15:56.712Z,-8.20
2022-12-18T02:18:29.856Z,-8.20
2022-12-18T02:21:06.871Z,-8.20
2022-12-18T02:23:52.335Z,-8.20
2022-12-18T02:26:28.251Z,-8.30
2022-12-18T02:29:00.885Z,-8.30
2022-12-18T02:31:35.351Z,-8.30
2022-12-18T02:34:06.667Z,-8.40
2022-12-18T02:36:42.658Z,-8.40
2022-12-18T02:39:15.762Z,-8.50
2022-12-18T02:41:56.295Z,-8.50
2022-12-18T02:44:25.974Z,-8.50
2022-12-18T02:46:56.305Z,-8.60
2022-12-18T02:49:36.997Z,-8.60
2022-12-18T02:52:15.677Z,-8.50
2022-12-18T02:54:59.499Z,-8.60
2022-12-18T02:57:37.787Z,-8.60
2022-12-18T03:00:09.245Z,-8.60
2022-12-18T03:02:43.362Z,-8.60
2022-12-18T03:05:16.006Z,-8.60
2022-12-18T03:07:50.276Z,-8.60
2022-12-18T03:10:25.423Z,-8.60
2022-12-18T03:12:58.363Z,-8.60
2022-12-18T03:15:30.607Z,-8.70
2022-12-18T03:18:10.623Z,-8.70
2022-12-18T03:20:41.791Z,-8.70
2022-12-18T03:23:13.973Z,-8.70
2022-12-18T03:25:44.600Z,-8.70
2022-12-18T03:28:18.486Z,-8.80
2022-12-18T03:30:49.810Z,-8.70
2022-12-18T03:33:22.051Z,-8.70
2022-12-18T03:35:52.910Z,-8.80
2022-12-18T03:38:21.368Z,-8.80
2022-12-18T03:41:01.945Z,-8.80
2022-12-18T03:43:44.947Z,-8.80
2022-12-18T03:46:21.252Z,-8.80
2022-12-18T03:48:54.840Z,-8.80
2022-12-18T03:51:29.342Z,-8.90
2022-12-18T03:54:00.879Z,-8.90
2022-12-18T03:56:39.218Z,-8.90
2022-12-18T03:59:12.186Z,-8.90
2022-12-18T04:01:43.472Z,-8.90
2022-12-18T04:04:16.405Z,-8.90
2022-12-18T04:06:47.452Z,-8.90
2022-12-18T04:09:16.389Z,-8.90
2022-12-18T04:11:48.580Z,-8.90
2022-12-18T04:14:19.271Z,-8.90
2022-12-18T04:16:51.255Z,-8.90
2022-12-18T04:19:23.083Z,-8.90
2022-12-18T04:21:52.650Z,-8.90
2022-12-18T04:24:22.114Z,-8.90
2022-12-18T04:27:04.313Z,-8.90
2022-12-18T04:29:41.863Z,-8.90
2022-12-18T04:32:10.101Z,-9.00
2022-12-18T04:34:38.912Z,-9.00
2022-12-18T04:37:07.094Z,-9.00
2022-12-18T04:39:35.078Z,-9.00
2022-12-18T04:42:08.213Z,-9.00
2022-12-18T04:44:36.269Z,-9.00
2022-12-18T04:47:05.830Z,-9.00
2022-12-18T04:49:33.757Z,-9.00
2022-12-18T04:52:01.737Z,-9.00
2022-12-18T04:54:29.716Z,-9.00
2022-12-18T04:56:57.706Z,-9.00
2022-12-18T04:59:25.638Z,-9.00
2022-12-18T05:01:54.080Z,-9.00
2022-12-18T05:04:23.466Z,-9.00
2022-12-18T05:06:51.391Z,-9.10
2022-12-18T05:09:19.526Z,-9.10
2022-12-18T05:11:47.606Z,-9.10
2022-12-18T05:14:15.556Z,-9.10
2022-12-18T05:16:43.526Z,-9.20
2022-12-18T05:19:12.456Z,-9.10
2022-12-18T05:21:42.431Z,-9.20
2022-12-18T05:24:10.456Z,-9.20
2022-12-18T05:26:38.403Z,-9.20
2022-12-18T05:29:06.329Z,-9.20
2022-12-18T05:31:39.547Z,-9.20
2022-12-18T05:34:07.971Z,-9.20
2022-12-18T05:36:35.950Z,-9.20
2022-12-18T05:39:05.492Z,-9.20
2022-12-18T05:41:34.119Z,-9.20
2022-12-18T05:44:02.403Z,-9.20
2022-12-18T05:46:30.400Z,-9.30
2022-12-18T05:49:01.952Z,-9.30
2022-12-18T05:51:30.140Z,-9.30
2022-12-18T05:53:58.060Z,-9.30
2022-12-18T05:56:27.354Z,-9.40
2022-12-18T05:58:56.445Z,-9.30
2022-12-18T06:01:27.216Z,-9.40
2022-12-18T06:03:55.702Z,-9.40
2022-12-18T06:06:26.929Z,-9.40
2022-12-18T06:08:56.328Z,-9.40
2022-12-18T06:11:28.155Z,-9.40
2022-12-18T06:13:59.564Z,-9.40
2022-12-18T06:16:29.550Z,-9.40
2022-12-18T06:18:58.660Z,-9.30
2022-12-18T06:21:27.040Z,-9.20
2022-12-18T06:23:54.988Z,-9.20
2022-12-18T06:26:27.798Z,-9.20
2022-12-18T06:28:57.954Z,-9.10
2022-12-18T06:31:27.145Z,-9.10
2022-12-18T06:33:55.234Z,-9.10
2022-12-18T06:36:23.516Z,-9.10
2022-12-18T06:38:51.529Z,-9.10
2022-12-18T06:41:21.569Z,-9.10
2022-12-18T06:43:49.483Z,-9.10
2022-12-18T06:46:18.995Z,-9.10
2022-12-18T06:48:49.716Z,-9.10
2022-12-18T06:51:22.049Z,-9.10
2022-12-18T06:53:50.635Z,-9.10
2022-12-18T06:56:19.094Z,-9.10
2022-12-18T06:58:47.072Z,-9.10
2022-12-18T07:01:19.209Z,-9.10
2022-12-18T07:03:47.411Z,-9.10
2022-12-18T07:06:17.072Z,-9.10
2022-12-18T07:08:47.601Z,-9.10
2022-12-18T07:11:16.117Z,-9.10
2022-12-18T07:13:44.879Z,-9.10
2022-12-18T07:16:20.785Z,-9.10
2022-12-18T07:18:53.696Z,-9.10
2022-12-18T07:21:23.854Z,-9.10
2022-12-18T07:23:52.184Z,-9.00
2022-12-18T07:26:22.199Z,-9.00
2022-12-18T07:28:50.531Z,-8.90
2022-12-18T07:31:21.519Z,-8.80
2022-12-18T07:33:49.994Z,-8.80
2022-12-18T07:36:19.984Z,-8.80
2022-12-18T07:38:52.421Z,-8.70
2022-12-18T07:41:20.622Z,-8.70
2022-12-18T07:43:48.934Z,-8.70
2022-12-18T07:46:18.231Z,-8.60
2022-12-18T07:48:50.005Z,-8.60
2022-12-18T07:51:20.331Z,-8.60
2022-12-18T07:53:52.226Z,-8.60
2022-12-18T07:56:27.877Z,-8.60
2022-12-18T07:58:56.814Z,-8.50
2022-12-18T08:01:25.295Z,-8.50
2022-12-18T08:03:53.467Z,-8.40
2022-12-18T08:06:23.842Z,-8.40
2022-12-18T08:08:53.504Z,-8.40
2022-12-18T08:11:21.573Z,-8.30
2022-12-18T08:13:49.737Z,-8.20
2022-12-18T08:16:18.448Z,-8.20
2022-12-18T08:18:46.750Z,-8.10
2022-12-18T08:21:16.366Z,-8.00
2022-12-18T08:23:46.490Z,-8.00
2022-12-18T08:26:15.257Z,-7.90
2022-12-18T08:28:44.745Z,-7.80
2022-12-18T08:31:13.082Z,-7.80
2022-12-18T08:33:42.177Z,-7.80
2022-12-18T08:36:11.874Z,-7.70
2022-12-18T08:38:40.208Z,-7.70
2022-12-18T08:41:12.015Z,-7.70
2022-12-18T08:43:57.542Z,-7.60
2022-12-18T08:46:27.952Z,-7.60
2022-12-18T08:48:56.838Z,-7.60
2022-12-18T08:51:25.108Z,-7.60
2022-12-18T08:53:53.079Z,-7.60
2022-12-18T08:56:22.513Z,-7.50
2022-12-18T08:58:54.277Z,-7.50
2022-12-18T09:01:22.616Z,-7.40
2022-12-18T09:03:51.193Z,-7.30
2022-12-18T09:06:21.687Z,-7.20
2022-12-18T09:08:49.715Z,-7.10
2022-12-18T09:11:23.730Z,-6.90
2022-12-18T09:13:52.327Z,-6.80
2022-12-18T09:16:22.532Z,-6.70
2022-12-18T09:18:54.836Z,-6.50
2022-12-18T09:21:23.207Z,-6.30
2022-12-18T09:23:52.748Z,-6.20
2022-12-18T09:26:20.944Z,-6.00
2022-12-18T09:28:50.776Z,-5.90
2022-12-18T09:31:20.337Z,-5.80
2022-12-18T09:33:48.688Z,-5.70
2022-12-18T09:36:18.560Z,-5.60
2022-12-18T09:38:46.680Z,-5.50
2022-12-18T09:41:50.874Z,-5.40
2022-12-18T09:44:28.015Z,-5.20
2022-12-18T09:47:04.838Z,-5.10
2022-12-18T09:49:41.440Z,-5.10
2022-12-18T09:52:15.463Z,-5.00
2022-12-18T09:54:45.663Z,-4.90
2022-12-18T09:57:17.364Z,-4.90
2022-12-18T09:59:51.951Z,-4.80
2022-12-18T10:02:23.223Z,-4.80
2022-12-18T10:05:06.345Z,-4.70
2022-12-18T10:07:49.341Z,-4.70
2022-12-18T10:10:29.554Z,-4.70
2022-12-18T10:13:05.096Z,-4.60
2022-12-18T10:15:41.655Z,-4.60
2022-12-18T10:18:23.978Z,-4.50
2022-12-18T10:20:54.646Z,-4.50
2022-12-18T10:23:28.776Z,-4.50
2022-12-18T10:26:03.778Z,-4.40
2022-12-18T10:28:33.431Z,-4.40
2022-12-18T10:31:07.626Z,-4.40
2022-12-18T10:33:36.322Z,-4.30
2022-12-18T10:36:04.566Z,-4.30
2022-12-18T10:38:33.924Z,-4.20
2022-12-18T10:41:04.146Z,-4.20
2022-12-18T10:43:33.346Z,-4.20
2022-12-18T10:46:18.813Z,-4.10
2022-12-18T10:48:54.678Z,-4.20
2022-12-18T10:51:25.902Z,-4.20
2022-12-18T10:53:57.698Z,-4.20
2022-12-18T10:56:29.045Z,-4.20
2022-12-18T10:59:02.609Z,-4.20
2022-12-18T11:01:49.002Z,-4.10
2022-12-18T11:04:21.074Z,-4.00
2022-12-18T11:06:58.629Z,-4.00
2022-12-18T11:09:27.999Z,-4.00
2022-12-18T11:11:59.796Z,-3.90
2022-12-18T11:14:30.648Z,-3.90
2022-12-18T11:19:55.170Z,-3.70
2022-12-18T11:22:27.350Z,-3.70
2022-12-18T11:27:51.442Z,-3.60
2022-12-18T11:30:25.435Z,-3.70
2022-12-18T11:32:58.539Z,-3.70
2022-12-18T11:35:36.657Z,-3.70
2022-12-18T11:38:12.581Z,-3.70
2022-12-18T11:40:47.093Z,-3.80
2022-12-18T11:43:19.642Z,-3.70
2022-12-18T11:45:54.232Z,-3.70
2022-12-18T11:48:27.288Z,-3.60
2022-12-18T11:50:57.272Z,-3.60
2022-12-18T11:53:27.132Z,-3.60
2022-12-18T11:56:07.972Z,-3.50
2022-12-18T11:58:51.057Z,-3.50
2022-12-18T12:01:29.572Z,-3.50
2022-12-18T12:04:30.977Z,-3.50
2022-12-18T12:07:07.587Z,-3.40
2022-12-18T12:09:43.052Z,-3.40
2022-12-18T12:12:31.711Z,-3.40
2022-12-18T12:15:12.188Z,-3.30
2022-12-18T12:17:47.442Z,-3.30
2022-12-18T12:20:22.572Z,-3.30
2022-12-18T12:22:57.060Z,-3.30
2022-12-18T12:25:35.179Z,-3.30
2022-12-18T12:28:20.180Z,-3.30
2022-12-18T12:31:02.951Z,-3.30
2022-12-18T12:33:41.403Z,-3.20
2022-12-18T12:36:22.620Z,-3.20
2022-12-18T12:38:57.124Z,-3.10
2022-12-18T12:41:48.150Z,-3.00
2022-12-18T12:44:20.251Z,-3.10
2022-12-18T12:46:49.639Z,-3.10
2022-12-18T12:49:21.871Z,-3.00
2022-12-18T12:52:00.663Z,-3.10
2022-12-18T12:54:30.321Z,-3.10
2022-12-18T12:57:04.191Z,-3.00
2022-12-18T12:59:39.211Z,-3.00
2022-12-18T13:02:16.821Z,-3.00
2022-12-18T13:04:50.947Z,-3.00
2022-12-18T13:07:27.961Z,-2.90
2022-12-18T13:10:26.997Z,-2.90
2022-12-18T13:12:59.424Z,-2.90
2022-12-18T13:15:38.267Z,-2.90
2022-12-18T13:18:16.195Z,-2.90
2022-12-18T13:20:53.663Z,-2.80
2022-12-18T13:23:35.121Z,-2.80
2022-12-18T13:26:32.925Z,-2.70
2022-12-18T13:29:02.785Z,-2.70
2022-12-18T13:32:02.071Z,-2.70
2022-12-18T13:34:32.681Z,-2.60
2022-12-18T13:37:34.733Z,-2.60
2022-12-18T13:40:04.648Z,-2.60
2022-12-18T13:42:59.804Z,-2.50
2022-12-18T13:45:47.360Z,-2.50
2022-12-18T13:48:22.758Z,-2.60
2022-12-18T13:50:57.016Z,-2.60
2022-12-18T13:53:29.039Z,-2.70
2022-12-18T13:55:58.945Z,-2.70
2022-12-18T13:58:26.929Z,-2.70
2022-12-18T14:00:55.353Z,-2.80
2022-12-18T14:03:28.214Z,-2.80
2022-12-18T14:06:00.721Z,-2.80
2022-12-18T14:08:34.730Z,-2.80
2022-12-18T14:11:06.258Z,-2.80
2022-12-18T14:13:38.586Z,-2.80
2022-12-18T14:16:09.418Z,-2.80
2022-12-18T14:18:47.297Z,-2.80
2022-12-18T14:21:22.724Z,-2.90
2022-12-18T14:24:05.110Z,-2.90
2022-12-18T14:26:36.837Z,-2.90
2022-12-18T14:29:22.753Z,-3.00
2022-12-18T14:32:08.398Z,-3.00
2022-12-18T14:34:38.498Z,-3.00
2022-12-18T14:37:06.643Z,-3.00
2022-12-18T14:39:34.635Z,-3.00
2022-12-18T14:42:03.979Z,-3.00
2022-12-18T14:44:44.136Z,-3.00
2022-12-18T14:47:17.051Z,-3.00
2022-12-18T14:49:45.686Z,-3.00
2022-12-18T14:52:25.387Z,-3.00
2022-12-18T14:54:54.396Z,-3.00
2022-12-18T14:57:27.343Z,-3.00
2022-12-18T14:59:55.385Z,-3.10
2022-12-18T15:02:25.729Z,-3.10
2022-12-18T15:05:04.372Z,-3.10
2022-12-18T15:07:43.588Z,-3.10
2022-12-18T15:10:14.241Z,-3.20
2022-12-18T15:12:45.873Z,-3.20
2022-12-18T15:15:49.062Z,-3.20
2022-12-18T15:18:18.835Z,-3.20
2022-12-18T15:20:52.066Z,-3.20
2022-12-18T15:23:23.168Z,-3.20
2022-12-18T15:25:58.645Z,-3.20
2022-12-18T15:28:33.036Z,-3.20
2022-12-18T15:31:04.598Z,-3.30
2022-12-18T15:33:35.209Z,-3.30
2022-12-18T15:36:05.689Z,-3.40
2022-12-18T15:38:34.374Z,-3.40
2022-12-18T15:41:02.923Z,-3.40
2022-12-18T15:43:34.634Z,-3.50
2022-12-18T15:46:03.909Z,-3.50
2022-12-18T15:48:32.138Z,-3.50
2022-12-18T15:51:00.276Z,-3.50
2022-12-18T15:53:32.256Z,-3.50
2022-12-18T15:56:17.953Z,-3.50
2022-12-18T15:58:47.482Z,-3.60
2022-12-18T16:01:16.788Z,-3.50
2022-12-18T16:03:48.129Z,-3.50
2022-12-18T16:06:16.123Z,-3.50
2022-12-18T16:08:44.120Z,-3.50
2022-12-18T16:11:38.595Z,-3.50
2022-12-18T16:14:14.909Z,-3.50
2022-12-18T16:16:42.875Z,-3.50
2022-12-18T16:19:10.823Z,-3.50
2022-12-18T16:21:38.932Z,-3.50
2022-12-18T16:24:07.556Z,-3.50
2022-12-18T16:26:35.536Z,-3.50
2022-12-18T16:29:03.482Z,-3.50
2022-12-18T16:31:33.639Z,-3.50
2022-12-18T16:34:16.207Z,-3.50
2022-12-18T16:36:44.124Z,-3.50
2022-12-18T16:39:12.221Z,-3.50
2022-12-18T16:41:40.152Z,-3.50
2022-12-18T16:44:08.131Z,-3.50
2022-12-18T16:46:37.628Z,-3.50
2022-12-18T16:49:05.790Z,-3.50
2022-12-18T16:51:36.895Z,-3.50
2022-12-18T16:54:09.347Z,-3.50
2022-12-18T16:56:39.321Z,-3.50
2022-12-18T16:59:07.867Z,-3.50
2022-12-18T17:01:37.324Z,-3.50
2022-12-18T17:04:07.243Z,-3.50
2022-12-18T17:06:37.551Z,-3.00
2022-12-18T17:09:09.763Z,-3.50
2022-12-18T17:11:37.753Z,-3.50
2022-12-18T17:14:08.704Z,-3.50
2022-12-18T17:16:40.230Z,-3.50
2022-12-18T17:19:12.259Z,-3.50
2022-12-18T17:21:43.238Z,-3.40
2022-12-18T17:24:11.238Z,-3.40
2022-12-18T17:26:39.212Z,-3.40
2022-12-18T17:29:07.321Z,-3.40
2022-12-18T17:31:35.871Z,-3.40
2022-12-18T17:34:05.377Z,-3.30
2022-12-18T17:36:33.486Z,-3.30
2022-12-18T17:39:03.046Z,-3.30
2022-12-18T17:41:32.221Z,-3.20
2022-12-18T17:44:02.520Z,-3.10
2022-12-18T17:46:32.118Z,-3.10
2022-12-18T17:49:00.847Z,-3.10
2022-12-18T17:51:30.673Z,-3.10
2022-12-18T17:53:58.606Z,-3.10
2022-12-18T17:56:27.063Z,-3.00
2022-12-18T17:58:55.167Z,-3.10
2022-12-18T18:01:26.165Z,-3.00
2022-12-18T18:03:56.039Z,-3.00
2022-12-18T18:06:24.586Z,-3.00
2022-12-18T18:08:54.998Z,-3.00
2022-12-18T18:11:42.575Z,-3.00
2022-12-18T18:14:15.497Z,-2.90
2022-12-18T18:16:45.371Z,-2.90
2022-12-18T18:19:15.297Z,-2.90
2022-12-18T18:21:44.734Z,-2.90
2022-12-18T18:24:16.419Z,-2.90
2022-12-18T18:26:46.320Z,-3.00
2022-12-18T18:29:16.335Z,-3.00
2022-12-18T18:31:44.402Z,-3.00
2022-12-18T18:34:15.642Z,-3.00
2022-12-18T18:36:43.732Z,-3.00
2022-12-18T18:39:11.755Z,-3.00
2022-12-18T18:41:41.068Z,-3.00
2022-12-18T18:44:12.305Z,-2.90
2022-12-18T18:46:40.447Z,-2.90
2022-12-18T18:49:08.393Z,-2.90
2022-12-18T18:51:36.633Z,-2.80
2022-12-18T18:54:04.739Z,-2.80
2022-12-18T18:59:26.802Z,-2.80
2022-12-18T19:01:59.813Z,-2.80
2022-12-18T19:04:30.977Z,-2.80
2022-12-18T19:06:58.984Z,-2.70
2022-12-18T19:09:27.653Z,-2.70
2022-12-18T19:12:14.346Z,-2.70
2022-12-18T19:14:46.783Z,-2.80
2022-12-18T19:17:14.785Z,-2.80
2022-12-18T19:19:43.757Z,-2.80
2022-12-18T19:22:11.716Z,-2.80
2022-12-18T19:24:39.898Z,-2.90
2022-12-18T19:27:09.755Z,-2.90
2022-12-18T19:29:40.802Z,-2.90
2022-12-18T19:32:11.474Z,-2.90
2022-12-18T19:34:40.284Z,-3.00
2022-12-18T19:37:08.328Z,-3.00
2022-12-18T19:39:36.388Z,-3.00
2022-12-18T19:42:04.702Z,-3.00
2022-12-18T19:44:32.627Z,-2.90
2022-12-18T19:47:00.598Z,-2.90
2022-12-18T19:49:30.621Z,-2.90
2022-12-18T19:51:58.568Z,-2.90
2022-12-18T19:54:26.592Z,-2.90
2022-12-18T19:56:54.530Z,-2.90
2022-12-18T19:59:22.535Z,-2.90
2022-12-18T20:01:53.442Z,-2.90
2022-12-18T20:04:21.568Z,-2.90
2022-12-18T20:06:52.675Z,-2.90
2022-12-18T20:09:21.967Z,-2.90
2022-12-18T20:11:51.013Z,-2.90
2022-12-18T20:14:23.224Z,-2.80
2022-12-18T20:16:52.166Z,-2.90
2022-12-18T20:19:20.587Z,-2.80
2022-12-18T20:21:50.139Z,-2.90
2022-12-18T20:24:18.101Z,-2.90
2022-12-18T20:26:46.166Z,-2.90
2022-12-18T20:29:14.098Z,-2.90
2022-12-18T20:31:42.129Z,-2.90
2022-12-18T20:34:13.199Z,-2.90
2022-12-18T20:36:41.953Z,-2.90
2022-12-18T20:39:12.130Z,-2.90
2022-12-18T20:41:40.688Z,-2.90
2022-12-18T20:44:22.683Z,-2.90
2022-12-18T20:46:53.608Z,-2.80
2022-12-18T20:49:21.960Z,-2.80
2022-12-18T20:51:52.539Z,-2.80
2022-12-18T20:54:22.807Z,-2.80
2022-12-18T20:56:51.445Z,-2.80
2022-12-18T20:59:20.248Z,-2.70
2022-12-18T21:01:49.470Z,-2.70
2022-12-18T21:04:18.421Z,-2.70
2022-12-18T21:06:50.971Z,-2.70
2022-12-18T21:09:21.708Z,-2.70
2022-12-18T21:12:07.533Z,-2.60
2022-12-18T21:14:35.801Z,-2.60
2022-12-18T21:17:04.330Z,-2.60
2022-12-18T21:19:32.253Z,-2.60
2022-12-18T21:22:00.761Z,-2.50
2022-12-18T21:24:32.023Z,-2.50
2022-12-18T21:27:01.801Z,-2.50
2022-12-18T21:29:29.976Z,-2.50
2022-12-18T21:31:59.465Z,-2.50
2022-12-18T21:34:30.173Z,-2.50
2022-12-18T21:36:59.885Z,-2.50
2022-12-18T21:39:31.127Z,-2.40
2022-12-18T21:42:17.860Z,-2.40
2022-12-18T21:44:48.954Z,-2.50
2022-12-18T21:47:21.710Z,-2.40
2022-12-18T21:49:51.785Z,-2.40
2022-12-18T21:52:21.566Z,-2.40
2022-12-18T21:55:08.362Z,-2.40
2022-12-18T21:57:37.594Z,-2.40
2022-12-18T22:00:06.798Z,-2.40
2022-12-18T22:02:40.247Z,-2.40
2022-12-18T22:05:09.212Z,-2.50
2022-12-18T22:07:37.346Z,-2.40
2022-12-18T22:10:07.609Z,-2.40
2022-12-18T22:12:43.970Z,-2.50
2022-12-18T22:15:21.320Z,-2.40
2022-12-18T22:17:50.966Z,-2.40
2022-12-18T22:20:20.049Z,-2.40
2022-12-18T22:22:48.383Z,-2.40
2022-12-18T22:25:17.734Z,-2.40
2022-12-18T22:28:06.038Z,-2.40
2022-12-18T22:30:33.046Z,-2.40
2022-12-18T22:33:01.038Z,-2.30
2022-12-18T22:35:29.098Z,-2.30
2022-12-18T22:37:58.936Z,-2.30
2022-12-18T22:40:29.198Z,-2.30
2022-12-18T22:42:57.200Z,-2.30
2022-12-18T22:45:25.813Z,-2.20
2022-12-18T22:47:53.966Z,-2.20
2022-12-18T22:50:22.000Z,-2.20
2022-12-18T22:52:49.964Z,-2.20
2022-12-18T22:55:18.041Z,-2.20
2022-12-18T22:57:49.078Z,-2.10
2022-12-18T23:00:24.211Z,-2.10
2022-12-18T23:02:59.320Z,-2.10
2022-12-18T23:05:29.743Z,-2.10
2022-12-18T23:07:57.826Z,-2.00
2022-12-18T23:10:25.853Z,-2.00
2022-12-18T23:12:55.232Z,-2.00
2022-12-18T23:15:27.781Z,-2.00
2022-12-18T23:17:58.246Z,-2.00
2022-12-18T23:20:26.594Z,-1.90
2022-12-18T23:22:54.581Z,-1.90
2022-12-18T23:25:22.583Z,-1.90
2022-12-18T23:27:50.512Z,-1.90
2022-12-18T23:30:19.845Z,-1.90
2022-12-18T23:32:48.239Z,-1.90
2022-12-18T23:35:16.707Z,-1.90
2022-12-18T23:38:00.772Z,-2.00
2022-12-18T23:40:30.072Z,-1.90
2022-12-18T23:42:59.436Z,-1.90
2022-12-18T23:45:28.771Z,-1.90
2022-12-18T23:47:56.695Z,-1.90
2022-12-18T23:50:29.766Z,-1.90
2022-12-18T23:53:05.366Z,-1.80
2022-12-18T23:55:35.255Z,-1.80
2022-12-18T23:58:03.228Z,-1.80
